sensor_id;sensor_type;location;lat;lon;timestamp;pressure;altitude;pressure_sealevel;temperature;humidity
29907;BME280;16776;50.958;10.994;2023-06-22T00:01:20;98789.59;;;19.92;100.00
29907;BME280;16776;50.958;10.994;2023-06-22T00:03:47;98798.13;;;19.95;100.00
29907;BME280;16776;50.958;10.994;2023-06-22T00:06:14;98799.03;;;19.94;100.00
29907;BME280;16776;50.958;10.994;2023-06-22T00:08:42;98794.44;;;19.98;100.00
29907;BME280;16776;50.958;10.994;2023-06-22T00:11:12;98792.22;;;19.92;100.00
29907;BME280;16776;50.958;10.994;2023-06-22T00:13:39;98792.22;;;19.92;100.00
29907;BME280;16776;50.958;10.994;2023-06-22T00:16:05;98782.81;;;19.89;100.00
29907;BME280;16776;50.958;10.994;2023-06-22T00:18:34;98779.41;;;19.87;100.00
29907;BME280;16776;50.958;10.994;2023-06-22T00:21:01;98777.81;;;19.85;100.00
29907;BME280;16776;50.958;10.994;2023-06-22T00:23:27;98784.09;;;19.82;100.00
29907;BME280;16776;50.958;10.994;2023-06-22T00:26:02;98784.00;;;19.84;100.00
29907;BME280;16776;50.958;10.994;2023-06-22T00:28:31;98797.16;;;19.82;100.00
29907;BME280;16776;50.958;10.994;2023-06-22T00:30:57;98795.88;;;19.75;100.00
29907;BME280;16776;50.958;10.994;2023-06-22T00:33:24;98794.34;;;19.71;100.00
29907;BME280;16776;50.958;10.994;2023-06-22T00:35:56;98772.63;;;19.70;100.00
29907;BME280;16776;50.958;10.994;2023-06-22T00:38:23;98758.81;;;19.54;100.00
29907;BME280;16776;50.958;10.994;2023-06-22T00:40:49;98769.09;;;19.57;100.00
29907;BME280;16776;50.958;10.994;2023-06-22T00:43:17;98766.56;;;19.56;100.00
29907;BME280;16776;50.958;10.994;2023-06-22T00:45:44;98759.94;;;19.50;100.00
29907;BME280;16776;50.958;10.994;2023-06-22T00:48:12;98766.03;;;19.51;100.00
29907;BME280;16776;50.958;10.994;2023-06-22T00:50:39;98777.56;;;19.47;100.00
29907;BME280;16776;50.958;10.994;2023-06-22T00:53:12;98778.63;;;19.44;100.00
29907;BME280;16776;50.958;10.994;2023-06-22T00:55:42;98774.13;;;19.46;100.00
29907;BME280;16776;50.958;10.994;2023-06-22T00:58:11;98769.19;;;19.42;100.00
29907;BME280;16776;50.958;10.994;2023-06-22T01:00:39;98767.41;;;19.42;100.00
29907;BME280;16776;50.958;10.994;2023-06-22T01:03:06;98766.78;;;19.39;100.00
29907;BME280;16776;50.958;10.994;2023-06-22T01:05:34;98770.19;;;19.39;100.00
29907;BME280;16776;50.958;10.994;2023-06-22T01:08:16;98757.81;;;19.43;100.00
29907;BME280;16776;50.958;10.994;2023-06-22T01:10:49;98764.88;;;19.41;100.00
29907;BME280;16776;50.958;10.994;2023-06-22T01:13:29;98774.41;;;19.42;100.00
29907;BME280;16776;50.958;10.994;2023-06-22T01:16:03;98772.72;;;19.41;100.00
29907;BME280;16776;50.958;10.994;2023-06-22T01:18:33;98776.53;;;19.35;100.00
29907;BME280;16776;50.958;10.994;2023-06-22T01:21:04;98777.38;;;19.35;100.00
29907;BME280;16776;50.958;10.994;2023-06-22T01:23:47;98765.16;;;19.36;100.00
29907;BME280;16776;50.958;10.994;2023-06-22T01:26:18;98762.25;;;19.26;100.00
29907;BME280;16776;50.958;10.994;2023-06-22T01:28:47;98749.31;;;19.25;100.00
29907;BME280;16776;50.958;10.994;2023-06-22T01:31:16;98753.88;;;19.21;100.00
29907;BME280;16776;50.958;10.994;2023-06-22T01:33:48;98751.34;;;19.20;100.00
29907;BME280;16776;50.958;10.994;2023-06-22T01:36:16;98743.03;;;19.13;100.00
29907;BME280;16776;50.958;10.994;2023-06-22T01:38:44;98744.88;;;19.11;100.00
29907;BME280;16776;50.958;10.994;2023-06-22T01:41:12;98728.66;;;19.06;100.00
29907;BME280;16776;50.958;10.994;2023-06-22T01:43:39;98731.44;;;19.03;100.00
29907;BME280;16776;50.958;10.994;2023-06-22T01:46:12;98731.44;;;19.03;100.00
29907;BME280;16776;50.958;10.994;2023-06-22T01:48:39;98722.28;;;18.96;100.00
29907;BME280;16776;50.958;10.994;2023-06-22T01:51:06;98707.75;;;18.92;100.00
29907;BME280;16776;50.958;10.994;2023-06-22T01:53:33;98715.75;;;18.89;100.00
29907;BME280;16776;50.958;10.994;2023-06-22T01:56:02;98719.97;;;18.91;100.00
29907;BME280;16776;50.958;10.994;2023-06-22T01:58:30;98712.59;;;18.84;100.00
29907;BME280;16776;50.958;10.994;2023-06-22T02:01:02;98705.53;;;18.86;100.00
29907;BME280;16776;50.958;10.994;2023-06-22T02:03:38;98696.00;;;18.85;100.00
29907;BME280;16776;50.958;10.994;2023-06-22T02:06:16;98682.13;;;18.84;100.00
29907;BME280;16776;50.958;10.994;2023-06-22T02:08:48;98693.69;;;18.80;100.00
29907;BME280;16776;50.958;10.994;2023-06-22T02:11:17;98702.72;;;18.75;100.00
29907;BME280;16776;50.958;10.994;2023-06-22T02:13:48;98698.59;;;18.71;100.00
29907;BME280;16776;50.958;10.994;2023-06-22T02:16:16;98667.91;;;18.60;100.00
29907;BME280;16776;50.958;10.994;2023-06-22T02:18:47;98681.00;;;18.74;100.00
29907;BME280;16776;50.958;10.994;2023-06-22T02:21:16;98668.00;;;18.58;100.00
29907;BME280;16776;50.958;10.994;2023-06-22T02:23:43;98702.31;;;18.67;100.00
29907;BME280;16776;50.958;10.994;2023-06-22T02:26:09;98721.56;;;18.64;100.00
29907;BME280;16776;50.958;10.994;2023-06-22T02:28:36;98729.41;;;18.64;100.00
29907;BME280;16776;50.958;10.994;2023-06-22T02:31:03;98749.44;;;18.64;100.00
29907;BME280;16776;50.958;10.994;2023-06-22T02:33:29;98747.66;;;18.64;100.00
29907;BME280;16776;50.958;10.994;2023-06-22T02:35:57;98747.50;;;18.67;100.00
29907;BME280;16776;50.958;10.994;2023-06-22T02:38:27;98745.06;;;18.64;100.00
29907;BME280;16776;50.958;10.994;2023-06-22T02:40:59;98748.50;;;18.65;100.00
29907;BME280;16776;50.958;10.994;2023-06-22T02:43:25;98746.66;;;18.67;100.00
29907;BME280;16776;50.958;10.994;2023-06-22T02:45:55;98758.78;;;18.68;100.00
29907;BME280;16776;50.958;10.994;2023-06-22T02:48:24;98764.00;;;18.68;100.00
29907;BME280;16776;50.958;10.994;2023-06-22T02:50:51;98770.06;;;18.68;100.00
29907;BME280;16776;50.958;10.994;2023-06-22T02:53:19;98776.84;;;18.71;100.00
29907;BME280;16776;50.958;10.994;2023-06-22T02:55:46;98790.81;;;18.70;100.00
29907;BME280;16776;50.958;10.994;2023-06-22T02:58:13;98795.94;;;18.71;100.00
29907;BME280;16776;50.958;10.994;2023-06-22T03:00:39;98797.72;;;18.71;100.00
29907;BME280;16776;50.958;10.994;2023-06-22T03:03:06;98808.91;;;18.73;100.00
29907;BME280;16776;50.958;10.994;2023-06-22T03:05:32;98814.97;;;18.73;100.00
29907;BME280;16776;50.958;10.994;2023-06-22T03:08:01;98823.66;;;18.74;100.00
29907;BME280;16776;50.958;10.994;2023-06-22T03:10:31;98844.31;;;18.77;100.00
29907;BME280;16776;50.958;10.994;2023-06-22T03:12:58;98861.09;;;18.73;100.00
29907;BME280;16776;50.958;10.994;2023-06-22T03:15:31;98869.19;;;18.68;100.00
29907;BME280;16776;50.958;10.994;2023-06-22T03:18:01;98879.28;;;18.58;100.00
29907;BME280;16776;50.958;10.994;2023-06-22T03:20:27;98881.47;;;18.50;100.00
29907;BME280;16776;50.958;10.994;2023-06-22T03:22:59;98882.09;;;18.38;100.00
29907;BME280;16776;50.958;10.994;2023-06-22T03:25:26;98883.97;;;18.36;100.00
29907;BME280;16776;50.958;10.994;2023-06-22T03:27:54;98868.63;;;18.30;100.00
29907;BME280;16776;50.958;10.994;2023-06-22T03:30:21;98867.47;;;18.20;100.00
29907;BME280;16776;50.958;10.994;2023-06-22T03:32:47;98869.50;;;18.15;100.00
29907;BME280;16776;50.958;10.994;2023-06-22T03:35:14;98856.78;;;18.09;100.00
29907;BME280;16776;50.958;10.994;2023-06-22T03:37:41;98861.41;;;18.04;100.00
29907;BME280;16776;50.958;10.994;2023-06-22T03:40:08;98861.47;;;18.02;100.00
29907;BME280;16776;50.958;10.994;2023-06-22T03:42:35;98866.09;;;17.97;100.00
29907;BME280;16776;50.958;10.994;2023-06-22T03:45:04;98868.59;;;17.99;100.00
29907;BME280;16776;50.958;10.994;2023-06-22T03:47:32;98865.59;;;17.91;100.00
29907;BME280;16776;50.958;10.994;2023-06-22T03:49:59;98850.28;;;17.85;100.00
29907;BME280;16776;50.958;10.994;2023-06-22T03:52:28;98826.22;;;17.79;100.00
29907;BME280;16776;50.958;10.994;2023-06-22T03:54:55;98802.94;;;17.76;100.00
29907;BME280;16776;50.958;10.994;2023-06-22T03:57:24;98789.66;;;17.81;100.00
29907;BME280;16776;50.958;10.994;2023-06-22T03:59:50;98780.25;;;17.78;100.00
29907;BME280;16776;50.958;10.994;2023-06-22T04:02:18;98752.13;;;17.85;100.00
29907;BME280;16776;50.958;10.994;2023-06-22T04:04:45;98748.50;;;17.88;100.00
29907;BME280;16776;50.958;10.994;2023-06-22T04:07:11;98743.97;;;17.91;100.00
29907;BME280;16776;50.958;10.994;2023-06-22T04:09:38;98702.00;;;17.96;100.00
29907;BME280;16776;50.958;10.994;2023-06-22T04:12:05;98692.25;;;17.99;100.00
29907;BME280;16776;50.958;10.994;2023-06-22T04:14:32;98705.19;;;18.01;100.00
29907;BME280;16776;50.958;10.994;2023-06-22T04:17:01;98709.50;;;18.02;100.00
29907;BME280;16776;50.958;10.994;2023-06-22T04:19:29;98708.31;;;18.07;100.00
29907;BME280;16776;50.958;10.994;2023-06-22T04:21:56;98696.13;;;18.08;100.00
29907;BME280;16776;50.958;10.994;2023-06-22T04:24:27;98702.66;;;18.15;100.00
29907;BME280;16776;50.958;10.994;2023-06-22T04:26:54;98716.59;;;18.30;100.00
29907;BME280;16776;50.958;10.994;2023-06-22T04:29:21;98707.13;;;18.43;100.00
29907;BME280;16776;50.958;10.994;2023-06-22T04:31:58;98714.06;;;18.74;100.00
29907;BME280;16776;50.958;10.994;2023-06-22T04:34:32;98721.56;;;18.94;100.00
29907;BME280;16776;50.958;10.994;2023-06-22T04:36:59;98715.97;;;19.14;100.00
29907;BME280;16776;50.958;10.994;2023-06-22T04:39:26;98705.09;;;19.36;100.00
29907;BME280;16776;50.958;10.994;2023-06-22T04:41:52;98702.09;;;19.56;100.00
29907;BME280;16776;50.958;10.994;2023-06-22T04:44:20;98683.13;;;19.67;100.00
29907;BME280;16776;50.958;10.994;2023-06-22T04:46:50;98691.88;;;19.94;100.00
29907;BME280;16776;50.958;10.994;2023-06-22T04:49:22;98676.69;;;20.13;100.00
29907;BME280;16776;50.958;10.994;2023-06-22T04:51:52;98671.00;;;20.34;100.00
29907;BME280;16776;50.958;10.994;2023-06-22T04:54:26;98675.09;;;20.50;100.00
29907;BME280;16776;50.958;10.994;2023-06-22T04:57:02;98674.72;;;20.69;100.00
29907;BME280;16776;50.958;10.994;2023-06-22T04:59:30;98684.16;;;20.84;100.00
29907;BME280;16776;50.958;10.994;2023-06-22T05:02:00;98684.06;;;20.99;100.00
29907;BME280;16776;50.958;10.994;2023-06-22T05:04:28;98676.22;;;21.11;100.00
29907;BME280;16776;50.958;10.994;2023-06-22T05:06:58;98692.56;;;21.27;100.00
29907;BME280;16776;50.958;10.994;2023-06-22T05:09:26;98698.81;;;21.38;100.00
29907;BME280;16776;50.958;10.994;2023-06-22T05:11:53;98703.09;;;21.51;100.00
29907;BME280;16776;50.958;10.994;2023-06-22T05:14:19;98705.69;;;21.64;100.00
29907;BME280;16776;50.958;10.994;2023-06-22T05:16:46;98705.56;;;21.78;100.00
29907;BME280;16776;50.958;10.994;2023-06-22T05:19:13;98704.81;;;21.89;100.00
29907;BME280;16776;50.958;10.994;2023-06-22T05:21:39;98707.50;;;22.00;100.00
29907;BME280;16776;50.958;10.994;2023-06-22T05:24:07;98705.69;;;22.13;100.00
29907;BME280;16776;50.958;10.994;2023-06-22T05:26:34;98707.72;;;22.21;100.00
29907;BME280;16776;50.958;10.994;2023-06-22T05:29:02;98709.22;;;22.36;100.00
29907;BME280;16776;50.958;10.994;2023-06-22T05:31:30;98702.47;;;22.44;100.00
29907;BME280;16776;50.958;10.994;2023-06-22T05:33:56;98690.13;;;22.58;100.00
29907;BME280;16776;50.958;10.994;2023-06-22T05:36:28;98692.66;;;22.70;100.00
29907;BME280;16776;50.958;10.994;2023-06-22T05:38:56;98696.25;;;22.80;100.00
29907;BME280;16776;50.958;10.994;2023-06-22T05:41:24;98690.19;;;22.91;100.00
29907;BME280;16776;50.958;10.994;2023-06-22T05:43:51;98692.69;;;22.92;100.00
29907;BME280;16776;50.958;10.994;2023-06-22T05:46:18;98692.59;;;22.94;100.00
29907;BME280;16776;50.958;10.994;2023-06-22T05:48:45;98694.00;;;22.87;100.00
29907;BME280;16776;50.958;10.994;2023-06-22T05:51:12;98702.34;;;22.81;100.00
29907;BME280;16776;50.958;10.994;2023-06-22T05:53:38;98707.34;;;22.73;100.00
29907;BME280;16776;50.958;10.994;2023-06-22T05:56:05;98711.63;;;22.63;100.00
29907;BME280;16776;50.958;10.994;2023-06-22T05:58:33;98726.16;;;22.56;100.00
29907;BME280;16776;50.958;10.994;2023-06-22T06:01:02;98727.53;;;22.48;100.00
29907;BME280;16776;50.958;10.994;2023-06-22T06:03:29;98726.75;;;22.35;100.00
29907;BME280;16776;50.958;10.994;2023-06-22T06:05:55;98726.47;;;22.27;100.00
29907;BME280;16776;50.958;10.994;2023-06-22T06:08:22;98724.44;;;22.20;100.00
29907;BME280;16776;50.958;10.994;2023-06-22T06:10:49;98727.50;;;22.13;100.00
29907;BME280;16776;50.958;10.994;2023-06-22T06:13:15;98733.91;;;22.09;100.00
29907;BME280;16776;50.958;10.994;2023-06-22T06:15:43;98730.56;;;22.07;100.00
29907;BME280;16776;50.958;10.994;2023-06-22T06:18:10;98729.34;;;22.00;100.00
29907;BME280;16776;50.958;10.994;2023-06-22T06:20:39;98735.63;;;21.98;100.00
29907;BME280;16776;50.958;10.994;2023-06-22T06:23:06;98727.00;;;21.96;100.00
29907;BME280;16776;50.958;10.994;2023-06-22T06:25:32;98734.19;;;21.94;100.00
29907;BME280;16776;50.958;10.994;2023-06-22T06:27:59;98732.50;;;21.93;100.00
29907;BME280;16776;50.958;10.994;2023-06-22T06:30:25;98742.16;;;21.92;100.00
29907;BME280;16776;50.958;10.994;2023-06-22T06:32:54;98733.22;;;21.95;100.00
29907;BME280;16776;50.958;10.994;2023-06-22T06:35:20;98735.84;;;21.95;100.00
29907;BME280;16776;50.958;10.994;2023-06-22T06:37:48;98726.81;;;21.99;100.00
29907;BME280;16776;50.958;10.994;2023-06-22T06:40:17;98733.41;;;22.04;100.00
29907;BME280;16776;50.958;10.994;2023-06-22T06:42:45;98714.19;;;22.04;100.00
29907;BME280;16776;50.958;10.994;2023-06-22T06:45:14;98718.53;;;22.16;100.00
29907;BME280;16776;50.958;10.994;2023-06-22T06:47:41;98715.25;;;22.25;100.00
29907;BME280;16776;50.958;10.994;2023-06-22T06:50:10;98715.09;;;22.39;100.00
29907;BME280;16776;50.958;10.994;2023-06-22T06:52:36;98719.47;;;22.51;100.00
29907;BME280;16776;50.958;10.994;2023-06-22T06:55:04;98710.91;;;22.72;100.00
29907;BME280;16776;50.958;10.994;2023-06-22T06:57:33;98711.19;;;22.91;100.00
29907;BME280;16776;50.958;10.994;2023-06-22T07:00:04;98714.81;;;23.12;100.00
29907;BME280;16776;50.958;10.994;2023-06-22T07:02:35;98703.53;;;23.34;100.00
29907;BME280;16776;50.958;10.994;2023-06-22T07:05:02;98693.94;;;23.55;100.00
29907;BME280;16776;50.958;10.994;2023-06-22T07:07:31;98693.38;;;23.74;100.00
29907;BME280;16776;50.958;10.994;2023-06-22T07:09:57;98695.34;;;23.93;100.00
29907;BME280;16776;50.958;10.994;2023-06-22T07:12:24;98694.09;;;24.08;100.00
29907;BME280;16776;50.958;10.994;2023-06-22T07:14:51;98699.06;;;24.22;100.00
29907;BME280;16776;50.958;10.994;2023-06-22T07:17:18;98690.44;;;24.31;100.00
29907;BME280;16776;50.958;10.994;2023-06-22T07:19:45;98693.16;;;24.41;100.00
29907;BME280;16776;50.958;10.994;2023-06-22T07:22:12;98690.28;;;24.44;100.00
29907;BME280;16776;50.958;10.994;2023-06-22T07:24:40;98675.78;;;24.49;100.00
29907;BME280;16776;50.958;10.994;2023-06-22T07:27:06;98671.19;;;24.52;100.00
29907;BME280;16776;50.958;10.994;2023-06-22T07:29:38;98673.59;;;24.55;100.00
29907;BME280;16776;50.958;10.994;2023-06-22T07:32:07;98675.84;;;24.59;100.00
29907;BME280;16776;50.958;10.994;2023-06-22T07:34:34;98674.25;;;24.68;100.00
29907;BME280;16776;50.958;10.994;2023-06-22T07:37:01;98674.16;;;24.79;100.00
29907;BME280;16776;50.958;10.994;2023-06-22T07:39:27;98671.09;;;24.95;100.00
29907;BME280;16776;50.958;10.994;2023-06-22T07:41:55;98678.16;;;25.15;100.00
29907;BME280;16776;50.958;10.994;2023-06-22T07:44:22;98674.16;;;25.30;100.00
29907;BME280;16776;50.958;10.994;2023-06-22T07:46:48;98663.97;;;25.46;100.00
29907;BME280;16776;50.958;10.994;2023-06-22T07:49:17;98672.94;;;25.64;100.00
29907;BME280;16776;50.958;10.994;2023-06-22T07:51:43;98674.34;;;25.78;100.00
29907;BME280;16776;50.958;10.994;2023-06-22T07:54:10;98671.28;;;25.92;100.00
29907;BME280;16776;50.958;10.994;2023-06-22T07:56:37;98671.31;;;26.02;100.00
29907;BME280;16776;50.958;10.994;2023-06-22T07:59:05;98670.53;;;26.11;100.00
29907;BME280;16776;50.958;10.994;2023-06-22T08:01:34;98664.41;;;26.20;100.00
29907;BME280;16776;50.958;10.994;2023-06-22T08:04:00;98660.78;;;26.31;100.00
29907;BME280;16776;50.958;10.994;2023-06-22T08:06:31;98650.94;;;26.42;100.00
29907;BME280;16776;50.958;10.994;2023-06-22T08:08:57;98654.78;;;26.58;100.00
29907;BME280;16776;50.958;10.994;2023-06-22T08:11:24;98651.72;;;26.72;100.00
29907;BME280;16776;50.958;10.994;2023-06-22T08:13:51;98650.97;;;26.89;100.00
29907;BME280;16776;50.958;10.994;2023-06-22T08:16:21;98653.41;;;27.10;100.00
29907;BME280;16776;50.958;10.994;2023-06-22T08:18:50;98656.19;;;27.18;100.00
29907;BME280;16776;50.958;10.994;2023-06-22T08:21:18;98649.88;;;27.29;100.00
29907;BME280;16776;50.958;10.994;2023-06-22T08:23:44;98648.03;;;27.39;100.00
29907;BME280;16776;50.958;10.994;2023-06-22T08:26:11;98652.97;;;27.51;100.00
29907;BME280;16776;50.958;10.994;2023-06-22T08:28:38;98642.03;;;27.64;100.00
29907;BME280;16776;50.958;10.994;2023-06-22T08:31:05;98634.63;;;27.77;100.00
29907;BME280;16776;50.958;10.994;2023-06-22T08:33:33;98624.31;;;27.92;100.00
29907;BME280;16776;50.958;10.994;2023-06-22T08:35:59;98629.69;;;28.00;100.00
29907;BME280;16776;50.958;10.994;2023-06-22T08:38:26;98630.28;;;28.12;100.00
29907;BME280;16776;50.958;10.994;2023-06-22T08:40:53;98621.97;;;28.24;100.00
29907;BME280;16776;50.958;10.994;2023-06-22T08:43:19;98622.28;;;28.39;100.00
29907;BME280;16776;50.958;10.994;2023-06-22T08:45:46;98621.88;;;28.52;100.00
29907;BME280;16776;50.958;10.994;2023-06-22T08:48:12;98617.13;;;28.63;100.00
29907;BME280;16776;50.958;10.994;2023-06-22T08:50:43;98615.63;;;28.78;100.00
29907;BME280;16776;50.958;10.994;2023-06-22T08:53:09;98615.34;;;28.90;99.86
29907;BME280;16776;50.958;10.994;2023-06-22T08:55:36;98618.69;;;29.00;100.00
29907;BME280;16776;50.958;10.994;2023-06-22T08:58:02;98628.69;;;29.14;98.71
29907;BME280;16776;50.958;10.994;2023-06-22T09:00:30;98614.81;;;29.20;97.82
29907;BME280;16776;50.958;10.994;2023-06-22T09:02:59;98605.75;;;29.23;98.10
29907;BME280;16776;50.958;10.994;2023-06-22T09:05:28;98616.84;;;29.26;97.40
29907;BME280;16776;50.958;10.994;2023-06-22T09:07:57;98614.38;;;29.33;98.20
29907;BME280;16776;50.958;10.994;2023-06-22T09:10:24;98616.88;;;29.34;97.97
29907;BME280;16776;50.958;10.994;2023-06-22T09:12:51;98606.63;;;29.39;98.19
29907;BME280;16776;50.958;10.994;2023-06-22T09:15:18;98614.59;;;29.47;97.57
29907;BME280;16776;50.958;10.994;2023-06-22T09:17:45;98604.03;;;29.55;97.65
29907;BME280;16776;50.958;10.994;2023-06-22T09:20:12;98596.88;;;29.64;97.14
29907;BME280;16776;50.958;10.994;2023-06-22T09:22:39;98596.09;;;29.72;97.85
29907;BME280;16776;50.958;10.994;2023-06-22T09:25:08;98594.97;;;29.82;98.34
29907;BME280;16776;50.958;10.994;2023-06-22T09:27:36;98591.66;;;29.88;97.23
29907;BME280;16776;50.958;10.994;2023-06-22T09:30:04;98590.66;;;29.97;96.67
29907;BME280;16776;50.958;10.994;2023-06-22T09:32:31;98572.06;;;30.06;96.99
29907;BME280;16776;50.958;10.994;2023-06-22T09:34:58;98576.56;;;30.13;96.47
29907;BME280;16776;50.958;10.994;2023-06-22T09:37:24;98568.59;;;30.21;96.65
29907;BME280;16776;50.958;10.994;2023-06-22T09:39:51;98564.47;;;30.27;95.65
29907;BME280;16776;50.958;10.994;2023-06-22T09:42:19;98573.06;;;30.37;96.48
29907;BME280;16776;50.958;10.994;2023-06-22T09:44:46;98565.56;;;30.41;95.13
29907;BME280;16776;50.958;10.994;2023-06-22T09:47:12;98566.91;;;30.45;95.63
29907;BME280;16776;50.958;10.994;2023-06-22T09:49:39;98556.94;;;30.47;95.65
29907;BME280;16776;50.958;10.994;2023-06-22T09:52:06;98567.22;;;30.50;95.41
29907;BME280;16776;50.958;10.994;2023-06-22T09:54:33;98562.09;;;30.48;94.66
29907;BME280;16776;50.958;10.994;2023-06-22T09:56:59;98560.59;;;30.46;94.40
29907;BME280;16776;50.958;10.994;2023-06-22T09:59:27;98568.91;;;30.43;94.00
29907;BME280;16776;50.958;10.994;2023-06-22T10:01:54;98558.28;;;30.34;94.62
29907;BME280;16776;50.958;10.994;2023-06-22T10:04:20;98558.63;;;30.31;94.67
29907;BME280;16776;50.958;10.994;2023-06-22T10:06:47;98563.13;;;30.31;94.66
29907;BME280;16776;50.958;10.994;2023-06-22T10:09:14;98562.28;;;30.30;94.52
29907;BME280;16776;50.958;10.994;2023-06-22T10:11:40;98553.66;;;30.28;93.89
29907;BME280;16776;50.958;10.994;2023-06-22T10:14:07;98545.88;;;30.27;93.83
29907;BME280;16776;50.958;10.994;2023-06-22T10:16:36;98543.53;;;30.32;94.19
29907;BME280;16776;50.958;10.994;2023-06-22T10:19:02;98540.56;;;30.27;94.15
29907;BME280;16776;50.958;10.994;2023-06-22T10:21:29;98543.53;;;30.24;93.47
29907;BME280;16776;50.958;10.994;2023-06-22T10:23:56;98541.22;;;30.21;93.25
29907;BME280;16776;50.958;10.994;2023-06-22T10:26:23;98538.69;;;30.19;93.27
29907;BME280;16776;50.958;10.994;2023-06-22T10:28:50;98547.50;;;30.20;93.29
29907;BME280;16776;50.958;10.994;2023-06-22T10:31:16;98535.22;;;30.19;93.72
29907;BME280;16776;50.958;10.994;2023-06-22T10:33:44;98538.56;;;30.21;93.75
29907;BME280;16776;50.958;10.994;2023-06-22T10:36:11;98544.69;;;30.21;93.11
29907;BME280;16776;50.958;10.994;2023-06-22T10:38:37;98541.03;;;30.22;93.85
29907;BME280;16776;50.958;10.994;2023-06-22T10:41:04;98541.72;;;30.24;92.86
29907;BME280;16776;50.958;10.994;2023-06-22T10:43:31;98542.03;;;30.29;93.95
29907;BME280;16776;50.958;10.994;2023-06-22T10:45:57;98530.25;;;30.32;93.09
29907;BME280;16776;50.958;10.994;2023-06-22T10:48:25;98522.91;;;30.42;93.46
29907;BME280;16776;50.958;10.994;2023-06-22T10:50:53;98526.38;;;30.51;93.56
29907;BME280;16776;50.958;10.994;2023-06-22T10:53:20;98516.41;;;30.53;93.26
29907;BME280;16776;50.958;10.994;2023-06-22T10:55:46;98527.84;;;30.53;92.65
29907;BME280;16776;50.958;10.994;2023-06-22T10:58:13;98519.88;;;30.53;92.62
29907;BME280;16776;50.958;10.994;2023-06-22T11:00:40;98526.69;;;30.56;93.65
29907;BME280;16776;50.958;10.994;2023-06-22T11:03:06;98511.03;;;30.61;93.05
29907;BME280;16776;50.958;10.994;2023-06-22T11:05:33;98519.03;;;30.69;92.62
29907;BME280;16776;50.958;10.994;2023-06-22T11:08:01;98508.69;;;30.74;92.00
29907;BME280;16776;50.958;10.994;2023-06-22T11:10:28;98519.03;;;30.69;91.05
29907;BME280;16776;50.958;10.994;2023-06-22T11:12:54;98511.56;;;30.64;90.55
29907;BME280;16776;50.958;10.994;2023-06-22T11:15:23;98511.41;;;30.58;90.50
29907;BME280;16776;50.958;10.994;2023-06-22T11:17:49;98497.81;;;30.53;90.75
29907;BME280;16776;50.958;10.994;2023-06-22T11:20:16;98494.16;;;30.46;90.43
29907;BME280;16776;50.958;10.994;2023-06-22T11:22:43;98485.22;;;30.38;91.13
29907;BME280;16776;50.958;10.994;2023-06-22T11:25:10;98475.28;;;30.32;91.07
29907;BME280;16776;50.958;10.994;2023-06-22T11:27:38;98485.72;;;30.34;91.11
29907;BME280;16776;50.958;10.994;2023-06-22T11:30:05;98485.38;;;30.37;91.68
29907;BME280;16776;50.958;10.994;2023-06-22T11:32:32;98482.56;;;30.38;90.88
29907;BME280;16776;50.958;10.994;2023-06-22T11:34:59;98481.22;;;30.43;91.05
29907;BME280;16776;50.958;10.994;2023-06-22T11:37:25;98482.53;;;30.47;91.74
29907;BME280;16776;50.958;10.994;2023-06-22T11:39:52;98475.88;;;30.51;91.97
29907;BME280;16776;50.958;10.994;2023-06-22T11:42:21;98467.88;;;30.59;92.07
29907;BME280;16776;50.958;10.994;2023-06-22T11:44:48;98453.41;;;30.61;90.83
29907;BME280;16776;50.958;10.994;2023-06-22T11:47:15;98459.38;;;30.63;90.71
29907;BME280;16776;50.958;10.994;2023-06-22T11:49:44;98421.06;;;30.50;91.13
29907;BME280;16776;50.958;10.994;2023-06-22T11:52:10;98436.91;;;30.66;90.30
29907;BME280;16776;50.958;10.994;2023-06-22T11:54:37;98446.25;;;30.62;90.19
29907;BME280;16776;50.958;10.994;2023-06-22T11:57:04;98442.28;;;30.58;90.02
29907;BME280;16776;50.958;10.994;2023-06-22T11:59:32;98430.16;;;30.55;91.00
29907;BME280;16776;50.958;10.994;2023-06-22T12:01:59;98440.81;;;30.47;90.88
29907;BME280;16776;50.958;10.994;2023-06-22T12:04:26;98430.72;;;30.43;90.54
29907;BME280;16776;50.958;10.994;2023-06-22T12:06:55;98427.75;;;30.46;91.14
29907;BME280;16776;50.958;10.994;2023-06-22T12:09:23;98413.47;;;30.38;90.67
29907;BME280;16776;50.958;10.994;2023-06-22T12:11:50;98402.50;;;30.42;90.92
29907;BME280;16776;50.958;10.994;2023-06-22T12:14:16;98401.16;;;30.46;90.73
29907;BME280;16776;50.958;10.994;2023-06-22T12:16:44;98389.63;;;30.53;91.61
29907;BME280;16776;50.958;10.994;2023-06-22T12:19:11;98393.63;;;30.57;91.11
29907;BME280;16776;50.958;10.994;2023-06-22T12:21:39;98383.94;;;30.64;90.55
29907;BME280;16776;50.958;10.994;2023-06-22T12:24:06;98380.28;;;30.65;90.99
29907;BME280;16776;50.958;10.994;2023-06-22T12:26:33;98371.81;;;30.70;90.96
29907;BME280;16776;50.958;10.994;2023-06-22T12:28:59;98373.13;;;30.74;90.62
29907;BME280;16776;50.958;10.994;2023-06-22T12:31:26;98366.47;;;30.78;90.21
29907;BME280;16776;50.958;10.994;2023-06-22T12:33:54;98358.41;;;30.86;90.97
29907;BME280;16776;50.958;10.994;2023-06-22T12:36:21;98352.75;;;30.89;90.19
29907;BME280;16776;50.958;10.994;2023-06-22T12:38:47;98356.06;;;30.91;89.76
29907;BME280;16776;50.958;10.994;2023-06-22T12:41:14;98346.88;;;30.94;88.87
29907;BME280;16776;50.958;10.994;2023-06-22T12:43:41;98345.06;;;30.94;88.91
29907;BME280;16776;50.958;10.994;2023-06-22T12:46:07;98344.41;;;30.92;89.93